sensor_id;sensor_type;location;lat;lon;timestamp;P1;durP1;ratioP1;P2;durP2;ratioP2
60054;SDS011;45930;53.514;55.904;2023-04-05T00:00:52;24.67;;;10.73;;
60054;SDS011;45930;53.514;55.904;2023-04-05T00:01:53;15.95;;;11.40;;
60054;SDS011;45930;53.514;55.904;2023-04-05T00:02:56;18.55;;;9.55;;
60054;SDS011;45930;53.514;55.904;2023-04-05T00:03:59;20.02;;;11.82;;
60054;SDS011;45930;53.514;55.904;2023-04-05T00:05:02;18.30;;;11.07;;
60054;SDS011;45930;53.514;55.904;2023-04-05T00:06:03;19.00;;;10.35;;
60054;SDS011;45930;53.514;55.904;2023-04-05T00:07:05;21.63;;;11.18;;
60054;SDS011;45930;53.514;55.904;2023-04-05T00:08:07;27.42;;;12.18;;
60054;SDS011;45930;53.514;55.904;2023-04-05T00:09:12;22.83;;;11.02;;
60054;SDS011;45930;53.514;55.904;2023-04-05T00:10:13;26.92;;;11.63;;
60054;SDS011;45930;53.514;55.904;2023-04-05T00:11:17;20.42;;;10.95;;
60054;SDS011;45930;53.514;55.904;2023-04-05T00:12:18;19.55;;;11.43;;
60054;SDS011;45930;53.514;55.904;2023-04-05T00:13:18;20.73;;;11.55;;
60054;SDS011;45930;53.514;55.904;2023-04-05T00:14:21;23.10;;;11.52;;
60054;SDS011;45930;53.514;55.904;2023-04-05T00:15:21;22.00;;;11.68;;
60054;SDS011;45930;53.514;55.904;2023-04-05T00:16:22;21.08;;;12.05;;
60054;SDS011;45930;53.514;55.904;2023-04-05T00:17:23;21.88;;;11.35;;
60054;SDS011;45930;53.514;55.904;2023-04-05T00:18:25;19.25;;;11.10;;
60054;SDS011;45930;53.514;55.904;2023-04-05T00:19:25;20.70;;;10.90;;
60054;SDS011;45930;53.514;55.904;2023-04-05T00:20:26;19.77;;;11.15;;
60054;SDS011;45930;53.514;55.904;2023-04-05T00:21:28;18.35;;;12.48;;
60054;SDS011;45930;53.514;55.904;2023-04-05T00:22:29;22.98;;;12.43;;
60054;SDS011;45930;53.514;55.904;2023-04-05T00:23:31;20.77;;;11.93;;
60054;SDS011;45930;53.514;55.904;2023-04-05T00:24:37;16.48;;;11.68;;
60054;SDS011;45930;53.514;55.904;2023-04-05T00:25:41;20.15;;;11.38;;
60054;SDS011;45930;53.514;55.904;2023-04-05T00:26:43;18.35;;;11.43;;
60054;SDS011;45930;53.514;55.904;2023-04-05T00:27:44;19.83;;;10.93;;
60054;SDS011;45930;53.514;55.904;2023-04-05T00:28:45;18.95;;;11.63;;
60054;SDS011;45930;53.514;55.904;2023-04-05T00:29:47;17.65;;;11.15;;
60054;SDS011;45930;53.514;55.904;2023-04-05T00:30:47;18.55;;;10.63;;
60054;SDS011;45930;53.514;55.904;2023-04-05T00:31:51;22.55;;;11.95;;
60054;SDS011;45930;53.514;55.904;2023-04-05T00:32:52;19.42;;;10.98;;
60054;SDS011;45930;53.514;55.904;2023-04-05T00:33:53;18.95;;;10.68;;
60054;SDS011;45930;53.514;55.904;2023-04-05T00:34:53;23.17;;;10.75;;
60054;SDS011;45930;53.514;55.904;2023-04-05T00:35:54;18.55;;;10.50;;
60054;SDS011;45930;53.514;55.904;2023-04-05T00:36:55;21.10;;;10.23;;
60054;SDS011;45930;53.514;55.904;2023-04-05T00:37:56;16.80;;;10.30;;
60054;SDS011;45930;53.514;55.904;2023-04-05T00:38:56;18.15;;;10.73;;
60054;SDS011;45930;53.514;55.904;2023-04-05T00:39:57;19.50;;;9.13;;
60054;SDS011;45930;53.514;55.904;2023-04-05T00:40:58;15.98;;;9.35;;
60054;SDS011;45930;53.514;55.904;2023-04-05T00:42:01;24.17;;;10.63;;
60054;SDS011;45930;53.514;55.904;2023-04-05T00:43:03;17.50;;;9.45;;
60054;SDS011;45930;53.514;55.904;2023-04-05T00:44:04;16.30;;;9.32;;
60054;SDS011;45930;53.514;55.904;2023-04-05T00:45:07;18.50;;;9.85;;
60054;SDS011;45930;53.514;55.904;2023-04-05T00:46:07;19.20;;;11.60;;
60054;SDS011;45930;53.514;55.904;2023-04-05T00:47:08;18.20;;;10.13;;
60054;SDS011;45930;53.514;55.904;2023-04-05T00:48:09;18.50;;;10.45;;
60054;SDS011;45930;53.514;55.904;2023-04-05T00:49:11;14.75;;;9.75;;
60054;SDS011;45930;53.514;55.904;2023-04-05T00:50:12;19.17;;;10.35;;
60054;SDS011;45930;53.514;55.904;2023-04-05T00:51:15;20.38;;;11.85;;
60054;SDS011;45930;53.514;55.904;2023-04-05T00:52:16;23.27;;;11.77;;
60054;SDS011;45930;53.514;55.904;2023-04-05T00:53:19;22.33;;;10.48;;
60054;SDS011;45930;53.514;55.904;2023-04-05T00:54:20;35.33;;;12.07;;
60054;SDS011;45930;53.514;55.904;2023-04-05T00:55:21;20.75;;;10.10;;
60054;SDS011;45930;53.514;55.904;2023-04-05T00:56:22;26.60;;;11.82;;
60054;SDS011;45930;53.514;55.904;2023-04-05T00:57:23;20.65;;;11.02;;
60054;SDS011;45930;53.514;55.904;2023-04-05T00:58:25;20.13;;;10.75;;
60054;SDS011;45930;53.514;55.904;2023-04-05T00:59:26;20.42;;;10.75;;
60054;SDS011;45930;53.514;55.904;2023-04-05T01:00:30;19.23;;;11.05;;
60054;SDS011;45930;53.514;55.904;2023-04-05T01:01:31;16.17;;;10.15;;
60054;SDS011;45930;53.514;55.904;2023-04-05T01:02:40;16.80;;;10.00;;
60054;SDS011;45930;53.514;55.904;2023-04-05T01:03:58;19.02;;;10.13;;
60054;SDS011;45930;53.514;55.904;2023-04-05T01:05:02;18.67;;;10.18;;
60054;SDS011;45930;53.514;55.904;2023-04-05T01:07:26;20.70;;;10.93;;
60054;SDS011;45930;53.514;55.904;2023-04-05T01:10:41;18.17;;;12.15;;
60054;SDS011;45930;53.514;55.904;2023-04-05T01:11:46;19.33;;;10.80;;
60054;SDS011;45930;53.514;55.904;2023-04-05T01:12:48;15.73;;;9.85;;
60054;SDS011;45930;53.514;55.904;2023-04-05T01:13:56;18.17;;;10.18;;
60054;SDS011;45930;53.514;55.904;2023-04-05T01:14:59;19.65;;;10.85;;
60054;SDS011;45930;53.514;55.904;2023-04-05T01:16:00;19.05;;;11.13;;
60054;SDS011;45930;53.514;55.904;2023-04-05T01:17:01;15.40;;;10.10;;
60054;SDS011;45930;53.514;55.904;2023-04-05T01:18:02;15.10;;;9.85;;
60054;SDS011;45930;53.514;55.904;2023-04-05T01:19:03;17.88;;;10.23;;
60054;SDS011;45930;53.514;55.904;2023-04-05T01:20:05;17.85;;;10.32;;
60054;SDS011;45930;53.514;55.904;2023-04-05T01:24:23;20.38;;;10.63;;
60054;SDS011;45930;53.514;55.904;2023-04-05T01:26:55;15.45;;;10.43;;
60054;SDS011;45930;53.514;55.904;2023-04-05T01:28:09;17.88;;;8.70;;
60054;SDS011;45930;53.514;55.904;2023-04-05T01:30:46;18.45;;;9.70;;
60054;SDS011;45930;53.514;55.904;2023-04-05T01:31:59;20.67;;;9.93;;
60054;SDS011;45930;53.514;55.904;2023-04-05T01:34:49;16.48;;;10.75;;
60054;SDS011;45930;53.514;55.904;2023-04-05T01:36:07;22.85;;;11.20;;
60054;SDS011;45930;53.514;55.904;2023-04-05T01:37:13;16.65;;;10.63;;
60054;SDS011;45930;53.514;55.904;2023-04-05T01:38:21;20.33;;;10.45;;
60054;SDS011;45930;53.514;55.904;2023-04-05T01:39:27;17.98;;;10.55;;
60054;SDS011;45930;53.514;55.904;2023-04-05T01:40:30;17.85;;;10.63;;
60054;SDS011;45930;53.514;55.904;2023-04-05T01:41:32;18.73;;;10.45;;
60054;SDS011;45930;53.514;55.904;2023-04-05T01:42:34;32.83;;;11.48;;
60054;SDS011;45930;53.514;55.904;2023-04-05T01:43:35;23.13;;;10.35;;
60054;SDS011;45930;53.514;55.904;2023-04-05T01:44:35;17.27;;;11.50;;
60054;SDS011;45930;53.514;55.904;2023-04-05T01:45:36;19.98;;;10.82;;
60054;SDS011;45930;53.514;55.904;2023-04-05T01:46:37;17.63;;;10.30;;
60054;SDS011;45930;53.514;55.904;2023-04-05T01:47:38;20.38;;;11.35;;
60054;SDS011;45930;53.514;55.904;2023-04-05T01:48:38;21.70;;;10.15;;
60054;SDS011;45930;53.514;55.904;2023-04-05T01:49:39;21.92;;;12.30;;
60054;SDS011;45930;53.514;55.904;2023-04-05T01:50:40;18.75;;;10.60;;
60054;SDS011;45930;53.514;55.904;2023-04-05T01:51:41;17.33;;;9.77;;
60054;SDS011;45930;53.514;55.904;2023-04-05T01:52:42;15.23;;;10.18;;
60054;SDS011;45930;53.514;55.904;2023-04-05T01:53:42;17.65;;;11.05;;
60054;SDS011;45930;53.514;55.904;2023-04-05T01:54:43;15.43;;;9.32;;
60054;SDS011;45930;53.514;55.904;2023-04-05T01:55:45;19.88;;;10.70;;
60054;SDS011;45930;53.514;55.904;2023-04-05T01:56:46;20.40;;;10.18;;
60054;SDS011;45930;53.514;55.904;2023-04-05T01:57:46;17.90;;;9.85;;
60054;SDS011;45930;53.514;55.904;2023-04-05T01:58:47;21.20;;;11.38;;
60054;SDS011;45930;53.514;55.904;2023-04-05T01:59:48;16.95;;;10.43;;
60054;SDS011;45930;53.514;55.904;2023-04-05T02:00:51;17.75;;;9.70;;
60054;SDS011;45930;53.514;55.904;2023-04-05T02:01:54;19.02;;;10.63;;
60054;SDS011;45930;53.514;55.904;2023-04-05T02:02:54;19.05;;;10.18;;
60054;SDS011;45930;53.514;55.904;2023-04-05T02:03:55;16.65;;;9.85;;
60054;SDS011;45930;53.514;55.904;2023-04-05T02:04:56;16.20;;;11.15;;
60054;SDS011;45930;53.514;55.904;2023-04-05T02:05:57;19.05;;;11.43;;
60054;SDS011;45930;53.514;55.904;2023-04-05T02:06:57;15.75;;;9.57;;
60054;SDS011;45930;53.514;55.904;2023-04-05T02:07:58;17.27;;;10.25;;
60054;SDS011;45930;53.514;55.904;2023-04-05T02:08:59;18.58;;;10.27;;
60054;SDS011;45930;53.514;55.904;2023-04-05T02:10:00;18.40;;;11.10;;
60054;SDS011;45930;53.514;55.904;2023-04-05T02:11:00;20.05;;;10.88;;
60054;SDS011;45930;53.514;55.904;2023-04-05T02:12:01;17.55;;;9.93;;
60054;SDS011;45930;53.514;55.904;2023-04-05T02:13:02;19.35;;;12.07;;
60054;SDS011;45930;53.514;55.904;2023-04-05T02:14:03;23.20;;;11.10;;
60054;SDS011;45930;53.514;55.904;2023-04-05T02:15:04;39.42;;;11.95;;
60054;SDS011;45930;53.514;55.904;2023-04-05T02:16:06;23.90;;;10.55;;
60054;SDS011;45930;53.514;55.904;2023-04-05T02:17:06;25.92;;;12.05;;
60054;SDS011;45930;53.514;55.904;2023-04-05T02:18:07;21.88;;;11.88;;
60054;SDS011;45930;53.514;55.904;2023-04-05T02:19:08;25.65;;;11.55;;
60054;SDS011;45930;53.514;55.904;2023-04-05T02:20:10;24.58;;;11.38;;
60054;SDS011;45930;53.514;55.904;2023-04-05T02:21:11;18.48;;;11.38;;
60054;SDS011;45930;53.514;55.904;2023-04-05T02:22:16;22.95;;;10.40;;
60054;SDS011;45930;53.514;55.904;2023-04-05T02:23:17;19.83;;;10.27;;
60054;SDS011;45930;53.514;55.904;2023-04-05T02:24:19;18.38;;;10.43;;
60054;SDS011;45930;53.514;55.904;2023-04-05T02:25:21;17.65;;;9.80;;
60054;SDS011;45930;53.514;55.904;2023-04-05T02:26:22;16.33;;;9.77;;
60054;SDS011;45930;53.514;55.904;2023-04-05T02:27:23;17.98;;;10.35;;
60054;SDS011;45930;53.514;55.904;2023-04-05T02:28:24;18.17;;;9.80;;
60054;SDS011;45930;53.514;55.904;2023-04-05T02:29:25;18.90;;;10.18;;
60054;SDS011;45930;53.514;55.904;2023-04-05T02:30:26;19.27;;;10.93;;
60054;SDS011;45930;53.514;55.904;2023-04-05T02:31:28;22.48;;;11.55;;
60054;SDS011;45930;53.514;55.904;2023-04-05T02:32:29;19.90;;;10.70;;
60054;SDS011;45930;53.514;55.904;2023-04-05T02:33:31;22.05;;;10.95;;
60054;SDS011;45930;53.514;55.904;2023-04-05T02:34:31;20.63;;;11.63;;
60054;SDS011;45930;53.514;55.904;2023-04-05T02:35:32;25.30;;;11.98;;
60054;SDS011;45930;53.514;55.904;2023-04-05T02:36:33;26.30;;;13.25;;
60054;SDS011;45930;53.514;55.904;2023-04-05T02:37:34;23.92;;;12.07;;
60054;SDS011;45930;53.514;55.904;2023-04-05T02:38:35;21.10;;;12.45;;
60054;SDS011;45930;53.514;55.904;2023-04-05T02:39:36;20.70;;;11.38;;
60054;SDS011;45930;53.514;55.904;2023-04-05T02:40:36;20.60;;;10.55;;
60054;SDS011;45930;53.514;55.904;2023-04-05T02:41:41;17.83;;;10.80;;
60054;SDS011;45930;53.514;55.904;2023-04-05T02:42:41;22.05;;;11.38;;
60054;SDS011;45930;53.514;55.904;2023-04-05T02:43:42;21.17;;;11.50;;
60054;SDS011;45930;53.514;55.904;2023-04-05T02:44:43;21.10;;;11.35;;
60054;SDS011;45930;53.514;55.904;2023-04-05T02:45:44;20.65;;;10.88;;
60054;SDS011;45930;53.514;55.904;2023-04-05T02:46:45;18.73;;;11.02;;
60054;SDS011;45930;53.514;55.904;2023-04-05T02:47:46;25.95;;;10.68;;
60054;SDS011;45930;53.514;55.904;2023-04-05T02:48:47;20.48;;;10.27;;
60054;SDS011;45930;53.514;55.904;2023-04-05T02:49:47;18.90;;;10.73;;
60054;SDS011;45930;53.514;55.904;2023-04-05T02:50:48;18.55;;;10.80;;
60054;SDS011;45930;53.514;55.904;2023-04-05T02:51:50;18.58;;;10.55;;
60054;SDS011;45930;53.514;55.904;2023-04-05T02:52:51;20.55;;;11.02;;
60054;SDS011;45930;53.514;55.904;2023-04-05T02:53:53;18.80;;;10.82;;
60054;SDS011;45930;53.514;55.904;2023-04-05T02:54:53;21.90;;;12.02;;
60054;SDS011;45930;53.514;55.904;2023-04-05T02:55:55;20.77;;;11.55;;
60054;SDS011;45930;53.514;55.904;2023-04-05T02:56:56;19.35;;;11.55;;
60054;SDS011;45930;53.514;55.904;2023-04-05T02:57:57;19.80;;;10.88;;
60054;SDS011;45930;53.514;55.904;2023-04-05T02:59:01;20.33;;;10.82;;
60054;SDS011;45930;53.514;55.904;2023-04-05T03:00:03;22.42;;;11.40;;
60054;SDS011;45930;53.514;55.904;2023-04-05T03:01:05;18.35;;;11.02;;
60054;SDS011;45930;53.514;55.904;2023-04-05T03:02:08;22.45;;;11.38;;
60054;SDS011;45930;53.514;55.904;2023-04-05T03:03:10;23.50;;;12.73;;
60054;SDS011;45930;53.514;55.904;2023-04-05T03:04:10;26.92;;;12.60;;
60054;SDS011;45930;53.514;55.904;2023-04-05T03:05:11;21.83;;;11.55;;
60054;SDS011;45930;53.514;55.904;2023-04-05T03:06:13;22.05;;;12.30;;
60054;SDS011;45930;53.514;55.904;2023-04-05T03:07:13;20.88;;;12.40;;
60054;SDS011;45930;53.514;55.904;2023-04-05T03:08:17;21.77;;;11.10;;
60054;SDS011;45930;53.514;55.904;2023-04-05T03:09:19;21.13;;;11.20;;
60054;SDS011;45930;53.514;55.904;2023-04-05T03:10:20;28.48;;;12.68;;
60054;SDS011;45930;53.514;55.904;2023-04-05T03:11:25;22.17;;;10.88;;
60054;SDS011;45930;53.514;55.904;2023-04-05T03:12:26;20.02;;;11.50;;
60054;SDS011;45930;53.514;55.904;2023-04-05T03:13:26;21.33;;;11.00;;
60054;SDS011;45930;53.514;55.904;2023-04-05T03:14:27;24.85;;;12.43;;
60054;SDS011;45930;53.514;55.904;2023-04-05T03:15:31;21.80;;;11.43;;
60054;SDS011;45930;53.514;55.904;2023-04-05T03:16:32;26.00;;;11.05;;
60054;SDS011;45930;53.514;55.904;2023-04-05T03:17:33;18.70;;;11.38;;
60054;SDS011;45930;53.514;55.904;2023-04-05T03:18:34;18.55;;;11.90;;
60054;SDS011;45930;53.514;55.904;2023-04-05T03:19:35;18.35;;;10.82;;
60054;SDS011;45930;53.514;55.904;2023-04-05T03:20:36;17.83;;;10.45;;
60054;SDS011;45930;53.514;55.904;2023-04-05T03:21:40;18.50;;;9.98;;
60054;SDS011;45930;53.514;55.904;2023-04-05T03:22:41;23.60;;;10.88;;
60054;SDS011;45930;53.514;55.904;2023-04-05T03:23:42;24.48;;;10.82;;
60054;SDS011;45930;53.514;55.904;2023-04-05T03:24:45;23.27;;;10.27;;
60054;SDS011;45930;53.514;55.904;2023-04-05T03:25:46;22.10;;;10.13;;
60054;SDS011;45930;53.514;55.904;2023-04-05T03:26:47;20.20;;;9.68;;
60054;SDS011;45930;53.514;55.904;2023-04-05T03:27:48;15.40;;;9.65;;
60054;SDS011;45930;53.514;55.904;2023-04-05T03:28:52;22.52;;;10.38;;
60054;SDS011;45930;53.514;55.904;2023-04-05T03:29:52;15.30;;;9.65;;
60054;SDS011;45930;53.514;55.904;2023-04-05T03:30:53;20.27;;;9.88;;
60054;SDS011;45930;53.514;55.904;2023-04-05T03:31:54;19.27;;;10.63;;
60054;SDS011;45930;53.514;55.904;2023-04-05T03:32:57;17.23;;;9.68;;
60054;SDS011;45930;53.514;55.904;2023-04-05T03:34:00;19.55;;;10.57;;
60054;SDS011;45930;53.514;55.904;2023-04-05T03:35:01;22.30;;;10.48;;
60054;SDS011;45930;53.514;55.904;2023-04-05T03:36:03;21.63;;;10.40;;
60054;SDS011;45930;53.514;55.904;2023-04-05T03:37:05;21.45;;;9.75;;
60054;SDS011;45930;53.514;55.904;2023-04-05T03:38:06;18.67;;;11.05;;
60054;SDS011;45930;53.514;55.904;2023-04-05T03:39:07;23.13;;;11.50;;
60054;SDS011;45930;53.514;55.904;2023-04-05T03:40:09;19.67;;;11.10;;
60054;SDS011;45930;53.514;55.904;2023-04-05T03:41:12;20.10;;;10.93;;
60054;SDS011;45930;53.514;55.904;2023-04-05T03:42:13;17.88;;;11.40;;
60054;SDS011;45930;53.514;55.904;2023-04-05T03:43:15;19.88;;;10.82;;
60054;SDS011;45930;53.514;55.904;2023-04-05T03:44:16;20.25;;;10.38;;
60054;SDS011;45930;53.514;55.904;2023-04-05T03:45:16;14.95;;;9.73;;
60054;SDS011;45930;53.514;55.904;2023-04-05T03:46:18;17.23;;;10.43;;
60054;SDS011;45930;53.514;55.904;2023-04-05T03:47:19;18.67;;;10.48;;
60054;SDS011;45930;53.514;55.904;2023-04-05T03:48:20;24.00;;;11.18;;
60054;SDS011;45930;53.514;55.904;2023-04-05T03:49:21;18.40;;;9.90;;
60054;SDS011;45930;53.514;55.904;2023-04-05T03:50:22;19.00;;;10.70;;
60054;SDS011;45930;53.514;55.904;2023-04-05T03:51:23;18.35;;;10.32;;
60054;SDS011;45930;53.514;55.904;2023-04-05T03:52:24;16.35;;;10.73;;
60054;SDS011;45930;53.514;55.904;2023-04-05T03:53:24;18.70;;;10.02;;
60054;SDS011;45930;53.514;55.904;2023-04-05T03:54:25;15.35;;;10.10;;
60054;SDS011;45930;53.514;55.904;2023-04-05T03:55:26;13.02;;;10.95;;
60054;SDS011;45930;53.514;55.904;2023-04-05T03:56:27;14.80;;;10.32;;
60054;SDS011;45930;53.514;55.904;2023-04-05T03:57:28;16.30;;;9.35;;
60054;SDS011;45930;53.514;55.904;2023-04-05T03:58:29;16.20;;;8.93;;
60054;SDS011;45930;53.514;55.904;2023-04-05T03:59:30;15.88;;;9.25;;
60054;SDS011;45930;53.514;55.904;2023-04-05T04:00:31;13.00;;;9.60;;
60054;SDS011;45930;53.514;55.904;2023-04-05T04:01:31;19.42;;;10.45;;
60054;SDS011;45930;53.514;55.904;2023-04-05T04:02:32;26.58;;;18.60;;
60054;SDS011;45930;53.514;55.904;2023-04-05T04:03:33;17.20;;;9.52;;
60054;SDS011;45930;53.514;55.904;2023-04-05T04:04:36;14.40;;;9.52;;
60054;SDS011;45930;53.514;55.904;2023-04-05T04:05:37;19.92;;;13.15;;
60054;SDS011;45930;53.514;55.904;2023-04-05T04:06:38;16.42;;;9.30;;
60054;SDS011;45930;53.514;55.904;2023-04-05T04:07:39;16.58;;;9.55;;
60054;SDS011;45930;53.514;55.904;2023-04-05T04:08:41;23.05;;;9.35;;
60054;SDS011;45930;53.514;55.904;2023-04-05T04:09:41;15.30;;;8.45;;
60054;SDS011;45930;53.514;55.904;2023-04-05T04:10:42;17.67;;;9.15;;
60054;SDS011;45930;53.514;55.904;2023-04-05T04:11:43;15.82;;;9.15;;
60054;SDS011;45930;53.514;55.904;2023-04-05T04:12:43;18.75;;;10.18;;
60054;SDS011;45930;53.514;55.904;2023-04-05T04:13:45;10.68;;;7.50;;
60054;SDS011;45930;53.514;55.904;2023-04-05T04:14:45;16.75;;;7.75;;
60054;SDS011;45930;53.514;55.904;2023-04-05T04:15:46;13.73;;;8.10;;
60054;SDS011;45930;53.514;55.904;2023-04-05T04:16:47;19.90;;;15.68;;
60054;SDS011;45930;53.514;55.904;2023-04-05T04:17:48;15.77;;;8.45;;
60054;SDS011;45930;53.514;55.904;2023-04-05T04:18:49;12.95;;;7.60;;
60054;SDS011;45930;53.514;55.904;2023-04-05T04:19:53;16.48;;;7.13;;
60054;SDS011;45930;53.514;55.904;2023-04-05T04:20:54;15.13;;;8.30;;
60054;SDS011;45930;53.514;55.904;2023-04-05T04:21:55;12.60;;;7.95;;
60054;SDS011;45930;53.514;55.904;2023-04-05T04:22:58;23.20;;;8.52;;
60054;SDS011;45930;53.514;55.904;2023-04-05T04:23:59;13.15;;;8.13;;
60054;SDS011;45930;53.514;55.904;2023-04-05T04:25:00;14.63;;;8.55;;
60054;SDS011;45930;53.514;55.904;2023-04-05T04:26:04;13.90;;;8.25;;
60054;SDS011;45930;53.514;55.904;2023-04-05T04:27:05;15.70;;;9.90;;
60054;SDS011;45930;53.514;55.904;2023-04-05T04:28:06;15.07;;;8.73;;
60054;SDS011;45930;53.514;55.904;2023-04-05T04:29:07;14.77;;;9.15;;
60054;SDS011;45930;53.514;55.904;2023-04-05T04:30:08;15.38;;;8.70;;
60054;SDS011;45930;53.514;55.904;2023-04-05T04:31:11;17.10;;;7.93;;
60054;SDS011;45930;53.514;55.904;2023-04-05T04:32:13;12.30;;;7.72;;
60054;SDS011;45930;53.514;55.904;2023-04-05T04:33:15;11.68;;;8.45;;
60054;SDS011;45930;53.514;55.904;2023-04-05T04:34:16;12.40;;;8.00;;
60054;SDS011;45930;53.514;55.904;2023-04-05T04:35:18;9.27;;;7.03;;
60054;SDS011;45930;53.514;55.904;2023-04-05T04:36:23;18.60;;;12.13;;
60054;SDS011;45930;53.514;55.904;2023-04-05T04:37:38;24.23;;;14.45;;
60054;SDS011;45930;53.514;55.904;2023-04-05T04:38:46;25.48;;;12.95;;
60054;SDS011;45930;53.514;55.904;2023-04-05T04:39:47;18.52;;;11.77;;
60054;SDS011;45930;53.514;55.904;2023-04-05T04:40:48;20.38;;;12.88;;
60054;SDS011;45930;53.514;55.904;2023-04-05T04:41:53;26.35;;;17.20;;
60054;SDS011;45930;53.514;55.904;2023-04-05T04:42:54;22.60;;;14.60;;
60054;SDS011;45930;53.514;55.904;2023-04-05T04:43:58;30.98;;;18.50;;
60054;SDS011;45930;53.514;55.904;2023-04-05T04:45:02;29.35;;;18.30;;
60054;SDS011;45930;53.514;55.904;2023-04-05T04:46:04;30.27;;;19.08;;
60054;SDS011;45930;53.514;55.904;2023-04-05T04:47:10;26.17;;;17.50;;
60054;SDS011;45930;53.514;55.904;2023-04-05T04:48:16;26.27;;;16.98;;
60054;SDS011;45930;53.514;55.904;2023-04-05T04:49:17;25.60;;;16.77;;
60054;SDS011;45930;53.514;55.904;2023-04-05T04:50:20;26.98;;;15.45;;
60054;SDS011;45930;53.514;55.904;2023-04-05T04:51:22;22.40;;;16.48;;
60054;SDS011;45930;53.514;55.904;2023-04-05T04:52:23;24.70;;;16.27;;
60054;SDS011;45930;53.514;55.904;2023-04-05T04:53:23;27.63;;;15.75;;
60054;SDS011;45930;53.514;55.904;2023-04-05T04:54:24;21.98;;;15.27;;
60054;SDS011;45930;53.514;55.904;2023-04-05T04:55:25;20.02;;;14.50;;
60054;SDS011;45930;53.514;55.904;2023-04-05T04:56:26;21.48;;;14.38;;
60054;SDS011;45930;53.514;55.904;2023-04-05T04:57:27;24.33;;;15.13;;
60054;SDS011;45930;53.514;55.904;2023-04-05T04:58:29;25.40;;;15.40;;
60054;SDS011;45930;53.514;55.904;2023-04-05T04:59:30;21.33;;;13.95;;
60054;SDS011;45930;53.514;55.904;2023-04-05T05:00:31;20.30;;;14.27;;
60054;SDS011;45930;53.514;55.904;2023-04-05T05:01:32;21.13;;;13.30;;
60054;SDS011;45930;53.514;55.904;2023-04-05T05:02:33;23.77;;;13.70;;
60054;SDS011;45930;53.514;55.904;2023-04-05T05:03:34;16.65;;;11.63;;
60054;SDS011;45930;53.514;55.904;2023-04-05T05:04:38;18.95;;;11.65;;
60054;SDS011;45930;53.514;55.904;2023-04-05T05:05:45;18.23;;;11.73;;
60054;SDS011;45930;53.514;55.904;2023-04-05T05:06:52;18.23;;;12.13;;
60054;SDS011;45930;53.514;55.904;2023-04-05T05:07:54;16.85;;;10.13;;
60054;SDS011;45930;53.514;55.904;2023-04-05T05:08:55;21.42;;;10.48;;
60054;SDS011;45930;53.514;55.904;2023-04-05T05:09:55;14.80;;;9.10;;
60054;SDS011;45930;53.514;55.904;2023-04-05T05:10:56;10.43;;;8.38;;
60054;SDS011;45930;53.514;55.904;2023-04-05T05:11:57;16.40;;;9.45;;
60054;SDS011;45930;53.514;55.904;2023-04-05T05:13:00;17.15;;;10.85;;
60054;SDS011;45930;53.514;55.904;2023-04-05T05:14:01;12.95;;;8.60;;
60054;SDS011;45930;53.514;55.904;2023-04-05T05:15:02;12.98;;;7.85;;
60054;SDS011;45930;53.514;55.904;2023-04-05T05:16:03;9.55;;;7.57;;
60054;SDS011;45930;53.514;55.904;2023-04-05T05:17:04;12.63;;;8.18;;
60054;SDS011;45930;53.514;55.904;2023-04-05T05:18:05;7.47;;;4.85;;
60054;SDS011;45930;53.514;55.904;2023-04-05T05:19:07;11.15;;;6.13;;
60054;SDS011;45930;53.514;55.904;2023-04-05T05:20:08;10.65;;;6.35;;
60054;SDS011;45930;53.514;55.904;2023-04-05T05:21:10;11.18;;;6.65;;
60054;SDS011;45930;53.514;55.904;2023-04-05T05:22:10;11.43;;;6.78;;
60054;SDS011;45930;53.514;55.904;2023-04-05T05:23:11;8.55;;;5.70;;
60054;SDS011;45930;53.514;55.904;2023-04-05T05:24:12;10.18;;;6.05;;
60054;SDS011;45930;53.514;55.904;2023-04-05T05:25:13;6.60;;;5.65;;
60054;SDS011;45930;53.514;55.904;2023-04-05T05:26:14;8.57;;;6.25;;
60054;SDS011;45930;53.514;55.904;2023-04-05T05:27:15;11.98;;;6.47;;
60054;SDS011;45930;53.514;55.904;2023-04-05T05:28:16;7.28;;;5.90;;
60054;SDS011;45930;53.514;55.904;2023-04-05T05:29:16;8.52;;;6.25;;
60054;SDS011;45930;53.514;55.904;2023-04-05T05:30:17;8.80;;;6.45;;
60054;SDS011;45930;53.514;55.904;2023-04-05T05:31:20;8.35;;;5.93;;
60054;SDS011;45930;53.514;55.904;2023-04-05T05:32:20;8.60;;;6.03;;
60054;SDS011;45930;53.514;55.904;2023-04-05T05:33:22;7.22;;;5.47;;
60054;SDS011;45930;53.514;55.904;2023-04-05T05:34:24;9.38;;;5.80;;
60054;SDS011;45930;53.514;55.904;2023-04-05T05:35:25;7.97;;;5.40;;
60054;SDS011;45930;53.514;55.904;2023-04-05T05:36:26;9.35;;;5.45;;
60054;SDS011;45930;53.514;55.904;2023-04-05T05:37:28;12.65;;;6.70;;
60054;SDS011;45930;53.514;55.904;2023-04-05T05:38:30;10.98;;;6.55;;
60054;SDS011;45930;53.514;55.904;2023-04-05T05:39:31;12.25;;;5.63;;
60054;SDS011;45930;53.514;55.904;2023-04-05T05:40:31;8.90;;;5.32;;
60054;SDS011;45930;53.514;55.904;2023-04-05T05:41:32;8.70;;;5.25;;
60054;SDS011;45930;53.514;55.904;2023-04-05T05:42:33;9.20;;;6.65;;
60054;SDS011;45930;53.514;55.904;2023-04-05T05:43:34;11.15;;;6.43;;
60054;SDS011;45930;53.514;55.904;2023-04-05T05:44:35;10.60;;;6.03;;
60054;SDS011;45930;53.514;55.904;2023-04-05T05:45:36;9.80;;;5.95;;
60054;SDS011;45930;53.514;55.904;2023-04-05T05:46:37;9.95;;;6.45;;
60054;SDS011;45930;53.514;55.904;2023-04-05T05:47:38;11.25;;;5.70;;
60054;SDS011;45930;53.514;55.904;2023-04-05T05:48:39;8.48;;;5.45;;
60054;SDS011;45930;53.514;55.904;2023-04-05T05:49:41;9.18;;;5.95;;
60054;SDS011;45930;53.514;55.904;2023-04-05T05:50:42;9.75;;;5.05;;
60054;SDS011;45930;53.514;55.904;2023-04-05T05:51:44;7.60;;;5.28;;
60054;SDS011;45930;53.514;55.904;2023-04-05T05:52:45;9.38;;;5.22;;
60054;SDS011;45930;53.514;55.904;2023-04-05T05:53:46;8.30;;;4.47;;
60054;SDS011;45930;53.514;55.904;2023-04-05T05:54:47;7.22;;;5.32;;
60054;SDS011;45930;53.514;55.904;2023-04-05T05:55:48;7.90;;;5.30;;
60054;SDS011;45930;53.514;55.904;2023-04-05T05:56:49;8.55;;;5.32;;
60054;SDS011;45930;53.514;55.904;2023-04-05T05:57:50;7.95;;;5.28;;
60054;SDS011;45930;53.514;55.904;2023-04-05T05:58:52;10.57;;;5.70;;
60054;SDS011;45930;53.514;55.904;2023-04-05T05:59:53;8.20;;;5.20;;
60054;SDS011;45930;53.514;55.904;2023-04-05T06:00:53;12.43;;;5.60;;
60054;SDS011;45930;53.514;55.904;2023-04-05T06:01:58;9.20;;;5.53;;
60054;SDS011;45930;53.514;55.904;2023-04-05T06:02:58;8.15;;;5.22;;
60054;SDS011;45930;53.514;55.904;2023-04-05T06:04:00;11.73;;;5.20;;
60054;SDS011;45930;53.514;55.904;2023-04-05T06:05:01;11.30;;;3.97;;
60054;SDS011;45930;53.514;55.904;2023-04-05T06:06:03;10.45;;;6.25;;
60054;SDS011;45930;53.514;55.904;2023-04-05T06:07:07;7.50;;;4.88;;
60054;SDS011;45930;53.514;55.904;2023-04-05T06:08:08;7.63;;;3.60;;
60054;SDS011;45930;53.514;55.904;2023-04-05T06:09:09;8.50;;;4.88;;
60054;SDS011;45930;53.514;55.904;2023-04-05T06:10:10;9.07;;;5.90;;